createdAt,value
2023-05-10T00:00:37.182Z,6.1
2023-05-10T00:05:43.254Z,5.9
2023-05-10T00:10:49.348Z,6.1
2023-05-10T00:15:55.533Z,5.9
2023-05-10T00:21:01.548Z,6
2023-05-10T00:26:07.640Z,6
2023-05-10T00:31:13.738Z,6
2023-05-10T00:36:19.809Z,5.7
2023-05-10T00:41:25.908Z,5.4
2023-05-10T00:46:32.078Z,5.3
2023-05-10T00:51:38.118Z,5.3
2023-05-10T00:56:55.416Z,5.6
2023-05-10T01:02:01.863Z,5.4
2023-05-10T01:07:07.650Z,5.7
2023-05-10T01:12:13.763Z,5.7
2023-05-10T01:17:19.838Z,5.6
2023-05-10T01:22:25.951Z,5.6
2023-05-10T01:27:32.021Z,5.6
2023-05-10T01:32:38.144Z,5.3
2023-05-10T01:37:44.201Z,5.3
2023-05-10T01:42:50.271Z,5.4
2023-05-10T01:47:56.397Z,5.5
2023-05-10T01:53:02.482Z,4.9
2023-05-10T01:58:08.562Z,4.8
2023-05-10T02:03:14.698Z,4.9
2023-05-10T02:08:20.746Z,4.6
2023-05-10T02:13:26.954Z,4.5
2023-05-10T02:18:33.073Z,4.5
2023-05-10T02:23:39.046Z,4.7
2023-05-10T02:28:45.125Z,4.6
2023-05-10T02:34:02.446Z,4.5
2023-05-10T02:39:08.526Z,4.5
2023-05-10T02:44:14.631Z,4.5
2023-05-10T02:49:20.710Z,4.3
2023-05-10T02:54:26.814Z,4.4
2023-05-10T02:59:32.891Z,4.6
2023-05-10T03:04:39.018Z,4.7
2023-05-10T03:09:45.089Z,4.6
2023-05-10T03:14:51.197Z,4.6
2023-05-10T03:20:02.926Z,4.6
2023-05-10T03:25:09.045Z,4.7
2023-05-10T03:30:15.322Z,4.4
2023-05-10T03:35:21.210Z,4.4
2023-05-10T03:40:27.292Z,4.4
2023-05-10T03:45:33.394Z,4.3
2023-05-10T03:50:39.520Z,4.1
2023-05-10T03:55:45.575Z,4.1
2023-05-10T04:00:51.682Z,4
2023-05-10T04:06:03.464Z,3.8
2023-05-10T04:11:09.501Z,3.8
2023-05-10T04:16:15.612Z,3.8
2023-05-10T04:21:21.686Z,3.8
2023-05-10T04:26:27.797Z,3.6
2023-05-10T04:31:33.932Z,3.4
2023-05-10T04:36:39.993Z,3.3
2023-05-10T04:41:46.091Z,3.4
2023-05-10T04:46:52.175Z,3.4
2023-05-10T04:51:58.229Z,3.4
2023-05-10T04:57:04.343Z,3.6
2023-05-10T05:02:10.462Z,4
2023-05-10T05:07:16.528Z,4.4
2023-05-10T05:12:22.650Z,4.5
2023-05-10T05:17:28.748Z,4.8
2023-05-10T05:22:34.790Z,5.7
2023-05-10T05:27:40.900Z,7
2023-05-10T05:32:47.038Z,8.6
2023-05-10T05:37:53.102Z,7.8
2023-05-10T05:43:04.837Z,7
2023-05-10T05:48:10.950Z,7.8
2023-05-10T05:53:17.032Z,7.5
2023-05-10T05:58:23.128Z,7.3
2023-05-10T06:03:29.338Z,7.2
2023-05-10T06:08:35.291Z,6.9
2023-05-10T06:13:41.410Z,6.3
2023-05-10T06:18:47.497Z,6.1
2023-05-10T06:23:53.583Z,6
2023-05-10T06:28:59.693Z,5.8
2023-05-10T06:34:05.786Z,5.8
2023-05-10T06:39:11.887Z,5.6
2023-05-10T06:44:17.969Z,5.9
2023-05-10T06:49:27.106Z,6.3
2023-05-10T06:54:30.156Z,6.7
2023-05-10T06:59:36.322Z,7
2023-05-10T07:04:42.363Z,7.8
2023-05-10T07:09:48.454Z,7.3
2023-05-10T07:14:54.573Z,7.1
2023-05-10T07:20:06.299Z,8.2
2023-05-10T07:25:12.397Z,8.3
2023-05-10T07:30:18.461Z,8
2023-05-10T07:35:24.578Z,7.4
2023-05-10T07:40:30.683Z,6.9
2023-05-10T07:45:36.769Z,6.6
2023-05-10T07:50:42.833Z,6.8
2023-05-10T07:55:48.935Z,7
2023-05-10T08:00:55.034Z,6.6
2023-05-10T08:06:01.128Z,6.7
2023-05-10T08:11:07.239Z,6.7
2023-05-10T08:16:13.356Z,6.9
2023-05-10T08:21:19.436Z,6.9
2023-05-10T08:26:25.504Z,7.8
2023-05-10T08:31:31.690Z,7.8
2023-05-10T08:36:37.672Z,7.4
2023-05-10T08:41:43.792Z,7.2
2023-05-10T08:46:49.872Z,8.1
2023-05-10T08:51:55.963Z,8
2023-05-10T08:57:07.719Z,7.3
2023-05-10T09:02:13.799Z,7.7
2023-05-10T09:07:19.884Z,7.6
2023-05-10T09:12:26.001Z,7.1
2023-05-10T09:17:32.101Z,7.3
2023-05-10T09:22:38.205Z,6.6
2023-05-10T09:27:45.270Z,5.7
2023-05-10T09:32:50.377Z,6.3
2023-05-10T09:37:56.514Z,7.2
2023-05-10T09:43:02.542Z,8
2023-05-10T09:48:08.739Z,8.6
2023-05-10T09:53:14.766Z,8.7
2023-05-10T09:58:20.821Z,8.7
2023-05-10T10:03:27.794Z,8.4
2023-05-10T10:08:33.039Z,8.6
2023-05-10T10:13:39.111Z,8.5
2023-05-10T10:18:45.219Z,9.6
2023-05-10T10:23:51.337Z,10.6
2023-05-10T10:28:57.404Z,10
2023-05-10T10:34:09.152Z,9.8
2023-05-10T10:39:15.220Z,9.5
2023-05-10T10:44:21.361Z,9.2
2023-05-10T10:49:27.415Z,8.8
2023-05-10T10:54:33.525Z,8.9
2023-05-10T10:59:39.626Z,9.5
2023-05-10T11:04:45.796Z,9.9
2023-05-10T11:09:51.799Z,9.6
2023-05-10T11:14:57.884Z,8.9
2023-05-10T11:20:03.984Z,8.1
2023-05-10T11:25:10.127Z,8.6
2023-05-10T11:30:16.454Z,8.7
2023-05-10T11:35:22.263Z,9.1
2023-05-10T11:40:28.348Z,9.9
2023-05-10T11:45:34.492Z,10.1
2023-05-10T11:50:40.572Z,10.5
2023-05-10T11:55:46.648Z,10.4
2023-05-10T12:00:52.731Z,10
2023-05-10T12:05:58.828Z,9.4
2023-05-10T12:11:16.153Z,9
2023-05-10T12:16:22.264Z,8.7
2023-05-10T12:21:28.375Z,8.8
2023-05-10T12:26:34.479Z,9.2
2023-05-10T12:31:40.552Z,9.3
2023-05-10T12:36:46.648Z,9.5
2023-05-10T12:41:52.726Z,9.5
2023-05-10T12:46:58.844Z,9.3
2023-05-10T12:52:04.913Z,8.7
2023-05-10T12:57:12.055Z,8.6
2023-05-10T13:02:17.105Z,7.9
2023-05-10T13:07:23.211Z,8.2
2023-05-10T13:12:29.271Z,8.5
2023-05-10T13:17:35.400Z,8.6
2023-05-10T13:22:41.479Z,8.8
2023-05-10T13:27:47.603Z,8.6
2023-05-10T13:32:53.671Z,8.2
2023-05-10T13:37:59.755Z,8.1
2023-05-10T13:43:05.901Z,8.7
2023-05-10T13:48:17.585Z,9.1
2023-05-10T13:53:23.675Z,8.5
2023-05-10T13:58:29.769Z,7.7
2023-05-10T14:03:35.902Z,7.5
2023-05-10T14:08:41.957Z,8.1
2023-05-10T14:13:48.036Z,7.8
2023-05-10T14:18:54.213Z,7.4
2023-05-10T14:24:00.260Z,7.1
2023-05-10T14:29:06.339Z,7.1
2023-05-10T14:34:12.435Z,7.5
2023-05-10T14:39:18.532Z,8
2023-05-10T14:44:24.626Z,7.7
2023-05-10T14:49:30.725Z,7.7
2023-05-10T14:54:36.812Z,7.9
2023-05-10T14:59:42.924Z,7.4
2023-05-10T15:04:49.016Z,7.1
2023-05-10T15:09:55.098Z,7.2
2023-05-10T15:15:01.224Z,7
2023-05-10T15:20:07.300Z,7.1
2023-05-10T15:25:19.156Z,6.9
2023-05-10T15:30:25.104Z,6.8
2023-05-10T15:35:31.198Z,7.1
2023-05-10T15:40:37.296Z,7.2
2023-05-10T15:45:43.401Z,7
2023-05-10T15:50:49.475Z,7
2023-05-10T15:55:55.580Z,7
2023-05-10T16:01:01.659Z,6.9
2023-05-10T16:06:07.754Z,6.7
2023-05-10T16:11:13.873Z,6.7
2023-05-10T16:16:20.013Z,6.7
2023-05-10T16:21:26.107Z,6.6
2023-05-10T16:26:32.143Z,6.4
2023-05-10T16:31:38.242Z,6.5
2023-05-10T16:36:44.314Z,6.6
2023-05-10T16:41:50.430Z,6.6
2023-05-10T16:46:56.513Z,6.8
2023-05-10T16:52:02.610Z,6.7
2023-05-10T16:57:08.697Z,6.7
2023-05-10T17:02:26.209Z,6.8
2023-05-10T17:07:32.130Z,6.8
2023-05-10T17:12:38.218Z,6.5
2023-05-10T17:17:44.346Z,6.3
2023-05-10T17:22:50.399Z,6.1
2023-05-10T17:27:56.505Z,6
2023-05-10T17:33:02.637Z,5.9
2023-05-10T17:38:08.684Z,6
2023-05-10T17:43:14.806Z,5.8
2023-05-10T17:48:20.876Z,5.7
2023-05-10T17:53:26.975Z,5.6
2023-05-10T17:58:33.051Z,5.4
2023-05-10T18:03:39.137Z,5.2
2023-05-10T18:08:45.232Z,5.1
2023-05-10T18:13:51.323Z,5
2023-05-10T18:18:57.486Z,4.9
2023-05-10T18:24:03.507Z,4.8
2023-05-10T18:29:09.614Z,4.9
2023-05-10T18:34:15.723Z,4.9
2023-05-10T18:39:27.482Z,5
2023-05-10T18:44:33.555Z,5.1
2023-05-10T18:49:39.648Z,5
2023-05-10T18:54:45.731Z,5
2023-05-10T18:59:51.812Z,5
2023-05-10T19:04:57.967Z,4.9
2023-05-10T19:10:04.021Z,4.8
2023-05-10T19:15:10.132Z,4.8
2023-05-10T19:20:21.834Z,4.6
2023-05-10T19:25:27.930Z,4.6
2023-05-10T19:30:34.016Z,4.5
2023-05-10T19:35:40.149Z,4.6
2023-05-10T19:40:46.212Z,4.4
2023-05-10T19:45:52.317Z,4.5
2023-05-10T19:50:58.387Z,4.7
2023-05-10T19:56:04.491Z,4.7
2023-05-10T20:01:10.623Z,4.4
2023-05-10T20:06:16.691Z,4.5
2023-05-10T20:11:39.610Z,4.5
2023-05-10T20:16:45.832Z,4.3
2023-05-10T20:21:51.768Z,4.1
2023-05-10T20:26:57.862Z,4
2023-05-10T20:32:03.965Z,4
2023-05-10T20:37:10.043Z,4
2023-05-10T20:42:16.135Z,4
2023-05-10T20:47:22.258Z,3.8
2023-05-10T20:52:28.329Z,3.6
2023-05-10T20:57:34.436Z,3.6
2023-05-10T21:02:40.563Z,3.7
2023-05-10T21:07:46.649Z,3.6
2023-05-10T21:12:52.713Z,3.4
2023-05-10T21:17:58.870Z,3.1
2023-05-10T21:23:04.918Z,2.9
2023-05-10T21:28:11.045Z,2.7
2023-05-10T21:33:17.102Z,2.7
2023-05-10T21:38:23.177Z,2.5
2023-05-10T21:43:29.288Z,2.5
2023-05-10T21:48:41.076Z,2.3
2023-05-10T21:53:47.105Z,2.3
2023-05-10T21:58:53.209Z,2.6
2023-05-10T22:03:59.292Z,2.7
2023-05-10T22:09:06.727Z,2.7
2023-05-10T22:14:11.592Z,3
2023-05-10T22:19:17.598Z,3.1
2023-05-10T22:24:23.701Z,3.2
2023-05-10T22:29:29.790Z,3.2
2023-05-10T22:34:35.884Z,3.3
2023-05-10T22:39:41.953Z,3.2
2023-05-10T22:44:48.074Z,3.2
2023-05-10T22:49:54.153Z,3.2
2023-05-10T22:55:00.260Z,3.2
2023-05-10T23:00:06.369Z,3
2023-05-10T23:05:12.608Z,3.1
2023-05-10T23:10:18.640Z,3
2023-05-10T23:15:25.652Z,3.1
2023-05-10T23:20:30.733Z,3
2023-05-10T23:25:42.477Z,2.8
2023-05-10T23:30:48.560Z,2.7
2023-05-10T23:35:54.666Z,2.6
2023-05-10T23:41:00.761Z,2.4
2023-05-10T23:46:06.862Z,2.3
2023-05-10T23:51:12.919Z,2.3
2023-05-10T23:56:18.990Z,2.3
